CheckWX is a tool to help pilots better visualize weather data.  It is not intended as a substitute for an official pre-flight weather briefing.

21:36:19 UTC

KPAN METAR
Payson Airport
Payson, Arizona, USA
Current

21 mins ago

KPAN 232115Z AUTO VRB05KT 10SM CLR 00/M04 A3022 RMK AO2
Observed
Feb-23 @ 21:15 UTC
Wind
  • Variable at 5 KTS
Visibility
10 SM
Flight Rules
VFR
Cloud Levels
  • Clear skies
Temperature
C / 32°F
Dewpoint
-4°C / 25°F
Humidity
75%
Altimeter
30.22" Hg
Pressure
1023.42 hPa
Previous

41 mins ago

KPAN 232055Z AUTO VRB04KT 10SM CLR 00/M05 A3022 RMK AO2
Observed
Feb-23 @ 20:55 UTC
Wind
  • Variable at 4 KTS
Visibility
10 SM
Flight Rules
VFR
Cloud Levels
  • Clear skies
Temperature
C / 32°F
Dewpoint
-5°C / 23°F
Humidity
69%
Altimeter
30.22" Hg
Pressure
1023.42 hPa
Previous

1 hour ago

KPAN 232035Z AUTO 00000KT 10SM CLR 00/M04 A3022 RMK AO2
Observed
Feb-23 @ 20:35 UTC
Visibility
10 SM
Flight Rules
VFR
Cloud Levels
  • Clear skies
Temperature
C / 32°F
Dewpoint
-4°C / 25°F
Humidity
75%
Altimeter
30.22" Hg
Pressure
1023.42 hPa